sensor_id;sensor_type;location;lat;lon;timestamp;P1;durP1;ratioP1;P2;durP2;ratioP2
5521;SDS011;2783;48.730;8.006;2023-10-19T00:00:39;0.40;;;0.40;;
5521;SDS011;2783;48.730;8.006;2023-10-19T00:03:05;0.47;;;0.47;;
5521;SDS011;2783;48.730;8.006;2023-10-19T00:05:32;0.50;;;0.50;;
5521;SDS011;2783;48.730;8.006;2023-10-19T00:07:58;0.50;;;0.50;;
5521;SDS011;2783;48.730;8.006;2023-10-19T00:10:25;0.50;;;0.50;;
5521;SDS011;2783;48.730;8.006;2023-10-19T00:12:54;0.40;;;0.40;;
5521;SDS011;2783;48.730;8.006;2023-10-19T00:15:31;0.50;;;0.50;;
5521;SDS011;2783;48.730;8.006;2023-10-19T00:17:59;0.50;;;0.50;;
5521;SDS011;2783;48.730;8.006;2023-10-19T00:20:45;0.50;;;0.50;;
5521;SDS011;2783;48.730;8.006;2023-10-19T00:25:50;0.40;;;0.40;;
5521;SDS011;2783;48.730;8.006;2023-10-19T00:28:18;0.40;;;0.40;;
5521;SDS011;2783;48.730;8.006;2023-10-19T00:30:44;0.45;;;0.45;;
5521;SDS011;2783;48.730;8.006;2023-10-19T00:33:10;0.40;;;0.40;;
5521;SDS011;2783;48.730;8.006;2023-10-19T00:35:47;0.40;;;0.40;;
5521;SDS011;2783;48.730;8.006;2023-10-19T00:38:36;0.40;;;0.40;;
5521;SDS011;2783;48.730;8.006;2023-10-19T00:41:02;0.50;;;0.50;;
5521;SDS011;2783;48.730;8.006;2023-10-19T00:43:40;0.50;;;0.50;;
5521;SDS011;2783;48.730;8.006;2023-10-19T00:46:14;0.40;;;0.40;;
5521;SDS011;2783;48.730;8.006;2023-10-19T00:51:11;0.40;;;0.40;;
5521;SDS011;2783;48.730;8.006;2023-10-19T00:53:55;0.50;;;0.50;;
5521;SDS011;2783;48.730;8.006;2023-10-19T00:56:24;0.50;;;0.50;;
5521;SDS011;2783;48.730;8.006;2023-10-19T00:58:53;0.40;;;0.40;;
5521;SDS011;2783;48.730;8.006;2023-10-19T01:01:22;0.50;;;0.50;;
5521;SDS011;2783;48.730;8.006;2023-10-19T01:03:53;0.40;;;0.40;;
5521;SDS011;2783;48.730;8.006;2023-10-19T01:06:21;0.40;;;0.40;;
5521;SDS011;2783;48.730;8.006;2023-10-19T01:08:50;0.40;;;0.40;;
5521;SDS011;2783;48.730;8.006;2023-10-19T01:11:17;0.40;;;0.40;;
5521;SDS011;2783;48.730;8.006;2023-10-19T01:13:46;0.40;;;0.40;;
5521;SDS011;2783;48.730;8.006;2023-10-19T01:16:13;0.40;;;0.40;;
5521;SDS011;2783;48.730;8.006;2023-10-19T01:18:49;0.50;;;0.50;;
5521;SDS011;2783;48.730;8.006;2023-10-19T01:21:22;0.40;;;0.40;;
5521;SDS011;2783;48.730;8.006;2023-10-19T01:23:52;0.40;;;0.40;;
5521;SDS011;2783;48.730;8.006;2023-10-19T01:26:17;0.47;;;0.47;;
5521;SDS011;2783;48.730;8.006;2023-10-19T01:28:47;0.50;;;0.50;;
5521;SDS011;2783;48.730;8.006;2023-10-19T01:31:22;0.50;;;0.50;;
5521;SDS011;2783;48.730;8.006;2023-10-19T01:33:47;0.40;;;0.40;;
5521;SDS011;2783;48.730;8.006;2023-10-19T01:36:14;0.50;;;0.50;;
5521;SDS011;2783;48.730;8.006;2023-10-19T01:38:39;0.45;;;0.45;;
5521;SDS011;2783;48.730;8.006;2023-10-19T01:41:06;0.40;;;0.40;;
5521;SDS011;2783;48.730;8.006;2023-10-19T01:43:39;0.45;;;0.45;;
5521;SDS011;2783;48.730;8.006;2023-10-19T01:46:08;0.40;;;0.40;;
5521;SDS011;2783;48.730;8.006;2023-10-19T01:48:41;0.40;;;0.40;;
5521;SDS011;2783;48.730;8.006;2023-10-19T01:51:08;0.50;;;0.50;;
5521;SDS011;2783;48.730;8.006;2023-10-19T01:53:39;0.40;;;0.40;;
5521;SDS011;2783;48.730;8.006;2023-10-19T01:56:09;0.50;;;0.50;;
5521;SDS011;2783;48.730;8.006;2023-10-19T01:58:41;0.40;;;0.40;;
5521;SDS011;2783;48.730;8.006;2023-10-19T02:01:09;0.40;;;0.40;;
5521;SDS011;2783;48.730;8.006;2023-10-19T02:03:55;0.50;;;0.50;;
5521;SDS011;2783;48.730;8.006;2023-10-19T02:06:24;0.40;;;0.40;;
5521;SDS011;2783;48.730;8.006;2023-10-19T02:09:03;0.50;;;0.50;;
5521;SDS011;2783;48.730;8.006;2023-10-19T02:11:34;0.45;;;0.45;;
5521;SDS011;2783;48.730;8.006;2023-10-19T02:14:06;0.40;;;0.40;;
5521;SDS011;2783;48.730;8.006;2023-10-19T02:16:39;0.50;;;0.50;;
5521;SDS011;2783;48.730;8.006;2023-10-19T02:19:06;0.40;;;0.40;;
5521;SDS011;2783;48.730;8.006;2023-10-19T02:21:31;0.40;;;0.40;;
5521;SDS011;2783;48.730;8.006;2023-10-19T02:23:58;0.40;;;0.40;;
5521;SDS011;2783;48.730;8.006;2023-10-19T02:26:23;0.40;;;0.40;;
5521;SDS011;2783;48.730;8.006;2023-10-19T02:28:52;0.40;;;0.40;;
5521;SDS011;2783;48.730;8.006;2023-10-19T02:31:19;0.43;;;0.43;;
5521;SDS011;2783;48.730;8.006;2023-10-19T02:33:48;0.40;;;0.40;;
5521;SDS011;2783;48.730;8.006;2023-10-19T02:36:20;0.50;;;0.50;;
5521;SDS011;2783;48.730;8.006;2023-10-19T02:38:45;0.40;;;0.40;;
5521;SDS011;2783;48.730;8.006;2023-10-19T02:41:17;0.50;;;0.50;;
5521;SDS011;2783;48.730;8.006;2023-10-19T02:43:45;0.47;;;0.47;;
5521;SDS011;2783;48.730;8.006;2023-10-19T02:46:26;0.40;;;0.40;;
5521;SDS011;2783;48.730;8.006;2023-10-19T02:48:52;0.50;;;0.50;;
5521;SDS011;2783;48.730;8.006;2023-10-19T02:51:17;0.50;;;0.50;;
5521;SDS011;2783;48.730;8.006;2023-10-19T02:53:44;0.50;;;0.50;;
5521;SDS011;2783;48.730;8.006;2023-10-19T02:56:13;0.50;;;0.50;;
5521;SDS011;2783;48.730;8.006;2023-10-19T02:58:44;0.50;;;0.50;;
5521;SDS011;2783;48.730;8.006;2023-10-19T03:01:18;0.45;;;0.45;;
5521;SDS011;2783;48.730;8.006;2023-10-19T03:03:47;0.40;;;0.40;;
5521;SDS011;2783;48.730;8.006;2023-10-19T03:06:17;0.50;;;0.50;;
5521;SDS011;2783;48.730;8.006;2023-10-19T03:08:45;0.43;;;0.43;;
5521;SDS011;2783;48.730;8.006;2023-10-19T03:11:11;0.50;;;0.50;;
5521;SDS011;2783;48.730;8.006;2023-10-19T03:13:38;0.40;;;0.40;;
5521;SDS011;2783;48.730;8.006;2023-10-19T03:16:06;0.40;;;0.40;;
5521;SDS011;2783;48.730;8.006;2023-10-19T03:18:32;0.50;;;0.50;;
5521;SDS011;2783;48.730;8.006;2023-10-19T03:21:00;0.50;;;0.50;;
5521;SDS011;2783;48.730;8.006;2023-10-19T03:23:28;0.40;;;0.40;;
5521;SDS011;2783;48.730;8.006;2023-10-19T03:25:56;0.45;;;0.45;;
5521;SDS011;2783;48.730;8.006;2023-10-19T03:28:40;0.50;;;0.50;;
5521;SDS011;2783;48.730;8.006;2023-10-19T03:31:06;0.50;;;0.50;;
5521;SDS011;2783;48.730;8.006;2023-10-19T03:33:33;0.50;;;0.50;;
5521;SDS011;2783;48.730;8.006;2023-10-19T03:36:01;0.50;;;0.50;;
5521;SDS011;2783;48.730;8.006;2023-10-19T03:38:28;0.50;;;0.50;;
5521;SDS011;2783;48.730;8.006;2023-10-19T03:40:59;0.40;;;0.40;;
5521;SDS011;2783;48.730;8.006;2023-10-19T03:43:32;0.50;;;0.50;;
5521;SDS011;2783;48.730;8.006;2023-10-19T03:45:58;0.50;;;0.50;;
5521;SDS011;2783;48.730;8.006;2023-10-19T03:48:24;0.50;;;0.50;;
5521;SDS011;2783;48.730;8.006;2023-10-19T03:50:55;0.50;;;0.50;;
5521;SDS011;2783;48.730;8.006;2023-10-19T03:53:21;0.40;;;0.40;;
5521;SDS011;2783;48.730;8.006;2023-10-19T03:55:47;0.50;;;0.50;;
5521;SDS011;2783;48.730;8.006;2023-10-19T03:58:15;0.50;;;0.50;;
5521;SDS011;2783;48.730;8.006;2023-10-19T04:00:41;0.50;;;0.50;;
5521;SDS011;2783;48.730;8.006;2023-10-19T04:03:06;0.43;;;0.43;;
5521;SDS011;2783;48.730;8.006;2023-10-19T04:05:32;0.45;;;0.45;;
5521;SDS011;2783;48.730;8.006;2023-10-19T04:08:03;0.50;;;0.50;;
5521;SDS011;2783;48.730;8.006;2023-10-19T04:10:45;0.43;;;0.43;;
5521;SDS011;2783;48.730;8.006;2023-10-19T04:13:33;0.40;;;0.40;;
5521;SDS011;2783;48.730;8.006;2023-10-19T04:16:02;0.50;;;0.50;;
5521;SDS011;2783;48.730;8.006;2023-10-19T04:18:27;0.50;;;0.50;;
5521;SDS011;2783;48.730;8.006;2023-10-19T04:20:53;0.50;;;0.50;;
5521;SDS011;2783;48.730;8.006;2023-10-19T04:23:19;0.50;;;0.50;;
5521;SDS011;2783;48.730;8.006;2023-10-19T04:25:52;0.50;;;0.50;;
5521;SDS011;2783;48.730;8.006;2023-10-19T04:28:18;0.50;;;0.50;;
5521;SDS011;2783;48.730;8.006;2023-10-19T04:30:55;0.50;;;0.50;;
5521;SDS011;2783;48.730;8.006;2023-10-19T04:33:20;0.50;;;0.50;;
5521;SDS011;2783;48.730;8.006;2023-10-19T04:35:47;0.50;;;0.50;;
5521;SDS011;2783;48.730;8.006;2023-10-19T04:38:20;0.60;;;0.60;;
5521;SDS011;2783;48.730;8.006;2023-10-19T04:40:46;0.50;;;0.50;;
5521;SDS011;2783;48.730;8.006;2023-10-19T04:43:12;0.40;;;0.40;;
5521;SDS011;2783;48.730;8.006;2023-10-19T04:45:39;0.50;;;0.50;;
5521;SDS011;2783;48.730;8.006;2023-10-19T04:48:05;0.50;;;0.50;;
5521;SDS011;2783;48.730;8.006;2023-10-19T04:50:31;0.60;;;0.60;;
5521;SDS011;2783;48.730;8.006;2023-10-19T04:52:56;0.50;;;0.50;;
5521;SDS011;2783;48.730;8.006;2023-10-19T04:55:22;0.60;;;0.60;;
5521;SDS011;2783;48.730;8.006;2023-10-19T04:57:47;0.50;;;0.50;;
5521;SDS011;2783;48.730;8.006;2023-10-19T05:00:14;0.50;;;0.50;;
5521;SDS011;2783;48.730;8.006;2023-10-19T05:02:40;0.50;;;0.50;;
5521;SDS011;2783;48.730;8.006;2023-10-19T05:05:06;0.52;;;0.52;;
5521;SDS011;2783;48.730;8.006;2023-10-19T05:07:32;0.50;;;0.50;;
5521;SDS011;2783;48.730;8.006;2023-10-19T05:09:58;0.50;;;0.50;;
5521;SDS011;2783;48.730;8.006;2023-10-19T05:12:24;0.50;;;0.50;;
5521;SDS011;2783;48.730;8.006;2023-10-19T05:14:50;0.60;;;0.60;;
5521;SDS011;2783;48.730;8.006;2023-10-19T05:17:15;0.50;;;0.50;;
5521;SDS011;2783;48.730;8.006;2023-10-19T05:19:41;0.50;;;0.50;;
5521;SDS011;2783;48.730;8.006;2023-10-19T05:22:07;0.50;;;0.50;;
5521;SDS011;2783;48.730;8.006;2023-10-19T05:24:34;0.50;;;0.50;;
5521;SDS011;2783;48.730;8.006;2023-10-19T05:27:00;0.50;;;0.50;;
5521;SDS011;2783;48.730;8.006;2023-10-19T05:29:26;0.50;;;0.50;;
5521;SDS011;2783;48.730;8.006;2023-10-19T05:31:52;0.60;;;0.60;;
5521;SDS011;2783;48.730;8.006;2023-10-19T05:34:21;0.60;;;0.60;;
5521;SDS011;2783;48.730;8.006;2023-10-19T05:36:47;0.50;;;0.50;;
5521;SDS011;2783;48.730;8.006;2023-10-19T05:39:16;0.55;;;0.55;;
5521;SDS011;2783;48.730;8.006;2023-10-19T05:41:42;0.50;;;0.50;;
5521;SDS011;2783;48.730;8.006;2023-10-19T05:44:08;0.50;;;0.50;;
5521;SDS011;2783;48.730;8.006;2023-10-19T05:46:34;0.50;;;0.50;;
5521;SDS011;2783;48.730;8.006;2023-10-19T05:49:00;0.50;;;0.50;;
5521;SDS011;2783;48.730;8.006;2023-10-19T05:51:28;0.50;;;0.50;;
5521;SDS011;2783;48.730;8.006;2023-10-19T05:53:54;0.50;;;0.50;;
5521;SDS011;2783;48.730;8.006;2023-10-19T05:56:26;0.50;;;0.50;;
5521;SDS011;2783;48.730;8.006;2023-10-19T05:58:59;0.60;;;0.60;;
5521;SDS011;2783;48.730;8.006;2023-10-19T06:01:26;0.50;;;0.50;;
5521;SDS011;2783;48.730;8.006;2023-10-19T06:03:51;0.52;;;0.52;;
5521;SDS011;2783;48.730;8.006;2023-10-19T06:06:17;0.60;;;0.60;;
5521;SDS011;2783;48.730;8.006;2023-10-19T06:08:44;0.50;;;0.50;;
5521;SDS011;2783;48.730;8.006;2023-10-19T06:11:10;0.50;;;0.50;;
5521;SDS011;2783;48.730;8.006;2023-10-19T06:13:35;0.50;;;0.50;;
5521;SDS011;2783;48.730;8.006;2023-10-19T06:16:00;0.60;;;0.60;;
5521;SDS011;2783;48.730;8.006;2023-10-19T06:18:26;0.50;;;0.50;;
5521;SDS011;2783;48.730;8.006;2023-10-19T06:20:51;0.50;;;0.50;;
5521;SDS011;2783;48.730;8.006;2023-10-19T06:23:19;0.60;;;0.60;;
5521;SDS011;2783;48.730;8.006;2023-10-19T06:25:45;0.50;;;0.50;;
5521;SDS011;2783;48.730;8.006;2023-10-19T06:28:11;0.50;;;0.50;;
5521;SDS011;2783;48.730;8.006;2023-10-19T06:30:37;0.57;;;0.57;;
5521;SDS011;2783;48.730;8.006;2023-10-19T06:33:03;0.50;;;0.50;;
5521;SDS011;2783;48.730;8.006;2023-10-19T06:35:29;0.60;;;0.60;;
5521;SDS011;2783;48.730;8.006;2023-10-19T06:38:02;0.50;;;0.50;;
5521;SDS011;2783;48.730;8.006;2023-10-19T06:40:29;0.50;;;0.50;;
5521;SDS011;2783;48.730;8.006;2023-10-19T06:42:55;0.50;;;0.50;;
5521;SDS011;2783;48.730;8.006;2023-10-19T06:45:21;0.50;;;0.50;;
5521;SDS011;2783;48.730;8.006;2023-10-19T06:47:47;0.50;;;0.50;;
5521;SDS011;2783;48.730;8.006;2023-10-19T06:50:15;0.50;;;0.50;;
5521;SDS011;2783;48.730;8.006;2023-10-19T06:52:42;0.50;;;0.50;;
5521;SDS011;2783;48.730;8.006;2023-10-19T06:55:08;0.50;;;0.50;;
5521;SDS011;2783;48.730;8.006;2023-10-19T06:57:39;0.50;;;0.50;;
5521;SDS011;2783;48.730;8.006;2023-10-19T07:00:08;0.50;;;0.50;;
5521;SDS011;2783;48.730;8.006;2023-10-19T07:02:45;0.60;;;0.60;;
5521;SDS011;2783;48.730;8.006;2023-10-19T07:05:11;0.50;;;0.50;;
5521;SDS011;2783;48.730;8.006;2023-10-19T07:07:41;0.50;;;0.50;;
5521;SDS011;2783;48.730;8.006;2023-10-19T07:10:08;0.50;;;0.50;;
5521;SDS011;2783;48.730;8.006;2023-10-19T07:12:37;0.40;;;0.40;;
5521;SDS011;2783;48.730;8.006;2023-10-19T07:15:04;0.50;;;0.50;;
5521;SDS011;2783;48.730;8.006;2023-10-19T07:17:32;0.40;;;0.40;;
5521;SDS011;2783;48.730;8.006;2023-10-19T07:19:58;0.40;;;0.40;;
5521;SDS011;2783;48.730;8.006;2023-10-19T07:22:24;0.50;;;0.50;;
5521;SDS011;2783;48.730;8.006;2023-10-19T07:24:50;0.40;;;0.40;;
5521;SDS011;2783;48.730;8.006;2023-10-19T07:27:16;0.50;;;0.50;;
5521;SDS011;2783;48.730;8.006;2023-10-19T07:29:45;0.50;;;0.50;;
5521;SDS011;2783;48.730;8.006;2023-10-19T07:32:10;0.40;;;0.40;;
5521;SDS011;2783;48.730;8.006;2023-10-19T07:34:42;0.50;;;0.50;;
5521;SDS011;2783;48.730;8.006;2023-10-19T07:37:09;0.50;;;0.50;;
5521;SDS011;2783;48.730;8.006;2023-10-19T07:39:40;0.35;;;0.35;;
5521;SDS011;2783;48.730;8.006;2023-10-19T07:42:09;0.40;;;0.40;;
5521;SDS011;2783;48.730;8.006;2023-10-19T07:44:36;0.40;;;0.40;;
5521;SDS011;2783;48.730;8.006;2023-10-19T07:47:01;0.38;;;0.38;;
5521;SDS011;2783;48.730;8.006;2023-10-19T07:49:27;0.40;;;0.40;;
5521;SDS011;2783;48.730;8.006;2023-10-19T07:51:52;0.40;;;0.40;;
5521;SDS011;2783;48.730;8.006;2023-10-19T07:54:18;0.40;;;0.40;;
5521;SDS011;2783;48.730;8.006;2023-10-19T07:56:43;0.30;;;0.30;;
5521;SDS011;2783;48.730;8.006;2023-10-19T07:59:09;0.38;;;0.38;;
5521;SDS011;2783;48.730;8.006;2023-10-19T08:01:35;0.30;;;0.30;;
5521;SDS011;2783;48.730;8.006;2023-10-19T08:04:01;0.30;;;0.30;;
5521;SDS011;2783;48.730;8.006;2023-10-19T08:06:27;0.30;;;0.30;;
5521;SDS011;2783;48.730;8.006;2023-10-19T08:08:52;0.30;;;0.30;;
5521;SDS011;2783;48.730;8.006;2023-10-19T08:11:18;0.40;;;0.40;;
5521;SDS011;2783;48.730;8.006;2023-10-19T08:13:43;0.30;;;0.30;;
5521;SDS011;2783;48.730;8.006;2023-10-19T08:16:09;0.30;;;0.30;;
5521;SDS011;2783;48.730;8.006;2023-10-19T08:18:34;0.30;;;0.30;;
5521;SDS011;2783;48.730;8.006;2023-10-19T08:21:00;0.30;;;0.30;;
5521;SDS011;2783;48.730;8.006;2023-10-19T08:23:27;0.30;;;0.30;;
5521;SDS011;2783;48.730;8.006;2023-10-19T08:25:53;0.40;;;0.40;;
5521;SDS011;2783;48.730;8.006;2023-10-19T08:28:19;0.30;;;0.30;;
5521;SDS011;2783;48.730;8.006;2023-10-19T08:30:46;0.30;;;0.30;;
5521;SDS011;2783;48.730;8.006;2023-10-19T08:33:24;0.32;;;0.32;;
5521;SDS011;2783;48.730;8.006;2023-10-19T08:35:54;0.30;;;0.30;;
5521;SDS011;2783;48.730;8.006;2023-10-19T08:38:21;0.20;;;0.20;;
5521;SDS011;2783;48.730;8.006;2023-10-19T08:40:48;0.30;;;0.30;;
5521;SDS011;2783;48.730;8.006;2023-10-19T08:43:14;0.30;;;0.30;;
5521;SDS011;2783;48.730;8.006;2023-10-19T08:45:43;0.20;;;0.20;;
5521;SDS011;2783;48.730;8.006;2023-10-19T08:48:08;0.20;;;0.20;;
5521;SDS011;2783;48.730;8.006;2023-10-19T08:50:34;0.20;;;0.20;;
5521;SDS011;2783;48.730;8.006;2023-10-19T08:53:00;0.20;;;0.20;;
5521;SDS011;2783;48.730;8.006;2023-10-19T08:55:30;0.20;;;0.20;;
5521;SDS011;2783;48.730;8.006;2023-10-19T08:57:56;0.20;;;0.20;;
5521;SDS011;2783;48.730;8.006;2023-10-19T09:00:25;0.20;;;0.20;;
5521;SDS011;2783;48.730;8.006;2023-10-19T09:02:54;0.20;;;0.20;;
5521;SDS011;2783;48.730;8.006;2023-10-19T09:05:21;0.20;;;0.20;;
5521;SDS011;2783;48.730;8.006;2023-10-19T09:07:50;0.20;;;0.20;;
5521;SDS011;2783;48.730;8.006;2023-10-19T09:10:23;0.20;;;0.20;;
5521;SDS011;2783;48.730;8.006;2023-10-19T09:15:29;0.20;;;0.20;;
5521;SDS011;2783;48.730;8.006;2023-10-19T09:20:43;0.20;;;0.20;;
5521;SDS011;2783;48.730;8.006;2023-10-19T09:23:24;0.15;;;0.15;;
5521;SDS011;2783;48.730;8.006;2023-10-19T09:25:52;0.20;;;0.20;;
5521;SDS011;2783;48.730;8.006;2023-10-19T09:28:18;0.20;;;0.20;;
5521;SDS011;2783;48.730;8.006;2023-10-19T09:30:43;0.20;;;0.20;;
5521;SDS011;2783;48.730;8.006;2023-10-19T09:33:09;0.20;;;0.20;;
5521;SDS011;2783;48.730;8.006;2023-10-19T09:35:36;0.20;;;0.20;;
5521;SDS011;2783;48.730;8.006;2023-10-19T09:38:04;0.20;;;0.20;;
5521;SDS011;2783;48.730;8.006;2023-10-19T09:40:32;0.20;;;0.20;;
5521;SDS011;2783;48.730;8.006;2023-10-19T09:42:58;0.20;;;0.20;;
5521;SDS011;2783;48.730;8.006;2023-10-19T09:48:02;0.20;;;0.20;;
5521;SDS011;2783;48.730;8.006;2023-10-19T09:50:31;0.20;;;0.20;;
5521;SDS011;2783;48.730;8.006;2023-10-19T09:52:57;0.20;;;0.20;;
5521;SDS011;2783;48.730;8.006;2023-10-19T09:55:31;0.20;;;0.20;;
5521;SDS011;2783;48.730;8.006;2023-10-19T09:58:04;0.20;;;0.20;;
5521;SDS011;2783;48.730;8.006;2023-10-19T10:00:34;0.20;;;0.20;;
5521;SDS011;2783;48.730;8.006;2023-10-19T10:03:00;0.20;;;0.20;;
5521;SDS011;2783;48.730;8.006;2023-10-19T10:10:46;0.20;;;0.20;;
5521;SDS011;2783;48.730;8.006;2023-10-19T10:15:49;0.20;;;0.20;;
5521;SDS011;2783;48.730;8.006;2023-10-19T10:18:17;0.30;;;0.30;;
5521;SDS011;2783;48.730;8.006;2023-10-19T10:20:43;0.20;;;0.20;;
5521;SDS011;2783;48.730;8.006;2023-10-19T10:23:18;0.20;;;0.20;;
5521;SDS011;2783;48.730;8.006;2023-10-19T10:25:49;0.20;;;0.20;;
5521;SDS011;2783;48.730;8.006;2023-10-19T10:28:19;0.20;;;0.20;;
5521;SDS011;2783;48.730;8.006;2023-10-19T10:33:50;0.30;;;0.30;;
5521;SDS011;2783;48.730;8.006;2023-10-19T10:36:19;0.30;;;0.30;;
5521;SDS011;2783;48.730;8.006;2023-10-19T10:38:46;0.30;;;0.30;;
5521;SDS011;2783;48.730;8.006;2023-10-19T10:41:19;0.20;;;0.20;;
5521;SDS011;2783;48.730;8.006;2023-10-19T10:43:53;0.30;;;0.30;;
5521;SDS011;2783;48.730;8.006;2023-10-19T10:46:21;0.30;;;0.30;;
5521;SDS011;2783;48.730;8.006;2023-10-19T10:48:47;0.22;;;0.22;;
5521;SDS011;2783;48.730;8.006;2023-10-19T10:51:17;0.30;;;0.30;;
5521;SDS011;2783;48.730;8.006;2023-10-19T10:53:50;0.30;;;0.30;;
5521;SDS011;2783;48.730;8.006;2023-10-19T10:56:17;0.30;;;0.30;;
5521;SDS011;2783;48.730;8.006;2023-10-19T10:58:44;0.30;;;0.30;;
5521;SDS011;2783;48.730;8.006;2023-10-19T11:01:09;0.30;;;0.30;;
5521;SDS011;2783;48.730;8.006;2023-10-19T11:03:36;0.30;;;0.30;;
5521;SDS011;2783;48.730;8.006;2023-10-19T11:06:06;0.20;;;0.20;;
5521;SDS011;2783;48.730;8.006;2023-10-19T11:08:35;0.22;;;0.22;;
5521;SDS011;2783;48.730;8.006;2023-10-19T11:11:06;0.20;;;0.20;;
5521;SDS011;2783;48.730;8.006;2023-10-19T11:13:35;0.30;;;0.30;;
5521;SDS011;2783;48.730;8.006;2023-10-19T11:16:03;0.20;;;0.20;;
5521;SDS011;2783;48.730;8.006;2023-10-19T11:18:34;0.30;;;0.30;;
5521;SDS011;2783;48.730;8.006;2023-10-19T11:21:02;0.30;;;0.30;;
5521;SDS011;2783;48.730;8.006;2023-10-19T11:23:42;0.30;;;0.30;;
5521;SDS011;2783;48.730;8.006;2023-10-19T11:26:09;0.20;;;0.20;;
5521;SDS011;2783;48.730;8.006;2023-10-19T11:28:38;0.20;;;0.20;;
5521;SDS011;2783;48.730;8.006;2023-10-19T11:31:11;0.20;;;0.20;;
5521;SDS011;2783;48.730;8.006;2023-10-19T11:33:43;0.20;;;0.20;;
5521;SDS011;2783;48.730;8.006;2023-10-19T11:36:10;0.20;;;0.20;;
5521;SDS011;2783;48.730;8.006;2023-10-19T11:38:38;0.20;;;0.20;;
5521;SDS011;2783;48.730;8.006;2023-10-19T11:41:07;0.20;;;0.20;;
5521;SDS011;2783;48.730;8.006;2023-10-19T11:43:33;0.20;;;0.20;;
5521;SDS011;2783;48.730;8.006;2023-10-19T11:45:59;0.22;;;0.22;;
5521;SDS011;2783;48.730;8.006;2023-10-19T11:48:25;0.20;;;0.20;;
5521;SDS011;2783;48.730;8.006;2023-10-19T11:50:51;0.20;;;0.20;;
5521;SDS011;2783;48.730;8.006;2023-10-19T11:53:16;0.20;;;0.20;;
5521;SDS011;2783;48.730;8.006;2023-10-19T11:55:42;0.28;;;0.28;;
5521;SDS011;2783;48.730;8.006;2023-10-19T11:58:08;0.20;;;0.20;;
5521;SDS011;2783;48.730;8.006;2023-10-19T12:00:39;0.20;;;0.20;;
5521;SDS011;2783;48.730;8.006;2023-10-19T12:03:04;0.20;;;0.20;;
5521;SDS011;2783;48.730;8.006;2023-10-19T12:05:31;0.20;;;0.20;;
5521;SDS011;2783;48.730;8.006;2023-10-19T12:07:57;0.20;;;0.20;;
5521;SDS011;2783;48.730;8.006;2023-10-19T12:10:22;0.20;;;0.20;;
5521;SDS011;2783;48.730;8.006;2023-10-19T12:13:06;0.20;;;0.20;;
5521;SDS011;2783;48.730;8.006;2023-10-19T12:15:33;0.20;;;0.20;;
5521;SDS011;2783;48.730;8.006;2023-10-19T12:17:59;0.20;;;0.20;;
5521;SDS011;2783;48.730;8.006;2023-10-19T12:20:25;0.20;;;0.20;;
5521;SDS011;2783;48.730;8.006;2023-10-19T12:22:51;0.20;;;0.20;;
5521;SDS011;2783;48.730;8.006;2023-10-19T12:25:19;0.20;;;0.20;;
5521;SDS011;2783;48.730;8.006;2023-10-19T12:27:53;0.20;;;0.20;;
5521;SDS011;2783;48.730;8.006;2023-10-19T12:30:19;0.20;;;0.20;;
5521;SDS011;2783;48.730;8.006;2023-10-19T12:32:46;0.20;;;0.20;;
5521;SDS011;2783;48.730;8.006;2023-10-19T12:35:14;0.20;;;0.20;;
5521;SDS011;2783;48.730;8.006;2023-10-19T12:37:40;0.20;;;0.20;;
5521;SDS011;2783;48.730;8.006;2023-10-19T12:40:14;0.20;;;0.20;;
5521;SDS011;2783;48.730;8.006;2023-10-19T12:42:51;0.20;;;0.20;;
5521;SDS011;2783;48.730;8.006;2023-10-19T12:45:23;0.20;;;0.20;;
5521;SDS011;2783;48.730;8.006;2023-10-19T12:47:50;0.20;;;0.20;;
5521;SDS011;2783;48.730;8.006;2023-10-19T12:50:18;0.20;;;0.20;;
5521;SDS011;2783;48.730;8.006;2023-10-19T12:52:48;0.20;;;0.20;;
5521;SDS011;2783;48.730;8.006;2023-10-19T12:55:14;0.25;;;0.25;;
5521;SDS011;2783;48.730;8.006;2023-10-19T12:57:40;0.20;;;0.20;;
5521;SDS011;2783;48.730;8.006;2023-10-19T13:00:06;0.20;;;0.20;;
5521;SDS011;2783;48.730;8.006;2023-10-19T13:02:49;0.30;;;0.30;;
5521;SDS011;2783;48.730;8.006;2023-10-19T13:05:15;0.20;;;0.20;;
5521;SDS011;2783;48.730;8.006;2023-10-19T13:07:43;0.28;;;0.28;;
5521;SDS011;2783;48.730;8.006;2023-10-19T13:10:09;0.20;;;0.20;;
5521;SDS011;2783;48.730;8.006;2023-10-19T13:12:36;0.20;;;0.20;;
5521;SDS011;2783;48.730;8.006;2023-10-19T13:15:02;0.20;;;0.20;;
5521;SDS011;2783;48.730;8.006;2023-10-19T13:17:28;0.20;;;0.20;;
5521;SDS011;2783;48.730;8.006;2023-10-19T13:19:53;0.20;;;0.20;;
5521;SDS011;2783;48.730;8.006;2023-10-19T13:22:21;0.20;;;0.20;;
5521;SDS011;2783;48.730;8.006;2023-10-19T13:24:47;0.30;;;0.30;;
5521;SDS011;2783;48.730;8.006;2023-10-19T13:27:12;0.20;;;0.20;;
5521;SDS011;2783;48.730;8.006;2023-10-19T13:29:38;0.30;;;0.30;;
5521;SDS011;2783;48.730;8.006;2023-10-19T13:32:06;0.20;;;0.20;;
5521;SDS011;2783;48.730;8.006;2023-10-19T13:34:32;0.20;;;0.20;;
5521;SDS011;2783;48.730;8.006;2023-10-19T13:36:57;0.20;;;0.20;;
5521;SDS011;2783;48.730;8.006;2023-10-19T13:39:22;0.20;;;0.20;;
5521;SDS011;2783;48.730;8.006;2023-10-19T13:41:53;0.20;;;0.20;;
5521;SDS011;2783;48.730;8.006;2023-10-19T13:44:18;0.20;;;0.20;;
5521;SDS011;2783;48.730;8.006;2023-10-19T13:46:46;0.20;;;0.20;;
5521;SDS011;2783;48.730;8.006;2023-10-19T13:49:12;0.30;;;0.30;;
5521;SDS011;2783;48.730;8.006;2023-10-19T13:51:38;0.25;;;0.25;;
5521;SDS011;2783;48.730;8.006;2023-10-19T13:54:04;0.28;;;0.28;;
5521;SDS011;2783;48.730;8.006;2023-10-19T13:56:30;0.20;;;0.20;;
5521;SDS011;2783;48.730;8.006;2023-10-19T13:58:55;0.28;;;0.28;;
5521;SDS011;2783;48.730;8.006;2023-10-19T14:01:21;0.30;;;0.30;;
5521;SDS011;2783;48.730;8.006;2023-10-19T14:03:53;0.20;;;0.20;;
5521;SDS011;2783;48.730;8.006;2023-10-19T14:06:21;0.20;;;0.20;;
5521;SDS011;2783;48.730;8.006;2023-10-19T14:08:48;0.30;;;0.30;;
5521;SDS011;2783;48.730;8.006;2023-10-19T14:11:14;0.20;;;0.20;;
5521;SDS011;2783;48.730;8.006;2023-10-19T14:13:40;0.20;;;0.20;;
5521;SDS011;2783;48.730;8.006;2023-10-19T14:16:08;0.20;;;0.20;;
5521;SDS011;2783;48.730;8.006;2023-10-19T14:18:35;0.20;;;0.20;;
5521;SDS011;2783;48.730;8.006;2023-10-19T14:21:09;0.30;;;0.30;;
5521;SDS011;2783;48.730;8.006;2023-10-19T14:23:37;0.20;;;0.20;;
5521;SDS011;2783;48.730;8.006;2023-10-19T14:26:04;0.20;;;0.20;;
5521;SDS011;2783;48.730;8.006;2023-10-19T14:28:29;0.20;;;0.20;;
5521;SDS011;2783;48.730;8.006;2023-10-19T14:30:56;0.30;;;0.30;;
5521;SDS011;2783;48.730;8.006;2023-10-19T14:33:22;0.30;;;0.30;;
5521;SDS011;2783;48.730;8.006;2023-10-19T14:35:47;0.20;;;0.20;;
5521;SDS011;2783;48.730;8.006;2023-10-19T14:38:13;0.30;;;0.30;;
5521;SDS011;2783;48.730;8.006;2023-10-19T14:40:40;0.20;;;0.20;;
5521;SDS011;2783;48.730;8.006;2023-10-19T14:43:10;0.20;;;0.20;;
5521;SDS011;2783;48.730;8.006;2023-10-19T14:45:36;0.20;;;0.20;;
5521;SDS011;2783;48.730;8.006;2023-10-19T14:48:01;0.20;;;0.20;;
5521;SDS011;2783;48.730;8.006;2023-10-19T14:50:33;0.20;;;0.20;;
5521;SDS011;2783;48.730;8.006;2023-10-19T14:53:00;0.30;;;0.30;;
5521;SDS011;2783;48.730;8.006;2023-10-19T14:55:25;0.20;;;0.20;;
5521;SDS011;2783;48.730;8.006;2023-10-19T14:57:54;0.20;;;0.20;;
5521;SDS011;2783;48.730;8.006;2023-10-19T15:00:23;0.30;;;0.30;;
5521;SDS011;2783;48.730;8.006;2023-10-19T15:03:09;0.20;;;0.20;;
5521;SDS011;2783;48.730;8.006;2023-10-19T15:05:36;0.20;;;0.20;;
5521;SDS011;2783;48.730;8.006;2023-10-19T15:08:03;0.20;;;0.20;;
5521;SDS011;2783;48.730;8.006;2023-10-19T15:10:32;0.20;;;0.20;;
5521;SDS011;2783;48.730;8.006;2023-10-19T15:12:59;0.20;;;0.20;;
5521;SDS011;2783;48.730;8.006;2023-10-19T15:15:25;0.20;;;0.20;;
5521;SDS011;2783;48.730;8.006;2023-10-19T15:17:51;0.20;;;0.20;;
5521;SDS011;2783;48.730;8.006;2023-10-19T15:20:18;0.30;;;0.30;;
5521;SDS011;2783;48.730;8.006;2023-10-19T15:22:45;0.28;;;0.28;;
5521;SDS011;2783;48.730;8.006;2023-10-19T15:25:11;0.20;;;0.20;;
5521;SDS011;2783;48.730;8.006;2023-10-19T15:27:43;0.30;;;0.30;;
5521;SDS011;2783;48.730;8.006;2023-10-19T15:30:09;0.30;;;0.30;;
5521;SDS011;2783;48.730;8.006;2023-10-19T15:32:39;0.20;;;0.20;;
5521;SDS011;2783;48.730;8.006;2023-10-19T15:35:11;0.20;;;0.20;;
5521;SDS011;2783;48.730;8.006;2023-10-19T15:37:38;0.20;;;0.20;;
5521;SDS011;2783;48.730;8.006;2023-10-19T15:40:04;0.20;;;0.20;;
5521;SDS011;2783;48.730;8.006;2023-10-19T15:42:30;0.20;;;0.20;;
5521;SDS011;2783;48.730;8.006;2023-10-19T15:44:56;0.30;;;0.30;;